sensor_id;sensor_type;location;lat;lon;timestamp;P1;durP1;ratioP1;P2;durP2;ratioP2
79064;SDS011;68469;51.502;7.462;2023-03-11T00:01:23;6.90;;;3.13;;
79064;SDS011;68469;51.502;7.462;2023-03-11T00:03:49;6.20;;;3.72;;
79064;SDS011;68469;51.502;7.462;2023-03-11T00:06:14;59.00;;;44.83;;
79064;SDS011;68469;51.502;7.462;2023-03-11T00:08:40;55.45;;;41.72;;
79064;SDS011;68469;51.502;7.462;2023-03-11T00:11:06;33.85;;;22.10;;
79064;SDS011;68469;51.502;7.462;2023-03-11T00:13:32;22.05;;;14.45;;
79064;SDS011;68469;51.502;7.462;2023-03-11T00:15:58;18.70;;;14.18;;
79064;SDS011;68469;51.502;7.462;2023-03-11T00:18:25;21.40;;;13.02;;
79064;SDS011;68469;51.502;7.462;2023-03-11T00:20:54;14.65;;;11.27;;
79064;SDS011;68469;51.502;7.462;2023-03-11T00:23:21;15.30;;;9.88;;
79064;SDS011;68469;51.502;7.462;2023-03-11T00:25:47;16.75;;;10.30;;
79064;SDS011;68469;51.502;7.462;2023-03-11T00:28:13;16.80;;;9.40;;
79064;SDS011;68469;51.502;7.462;2023-03-11T00:30:40;10.35;;;6.72;;
79064;SDS011;68469;51.502;7.462;2023-03-11T00:33:07;12.70;;;7.38;;
79064;SDS011;68469;51.502;7.462;2023-03-11T00:35:33;12.85;;;8.18;;
79064;SDS011;68469;51.502;7.462;2023-03-11T00:38:00;16.88;;;9.32;;
79064;SDS011;68469;51.502;7.462;2023-03-11T00:40:29;11.10;;;8.10;;
79064;SDS011;68469;51.502;7.462;2023-03-11T00:42:56;13.13;;;8.80;;
79064;SDS011;68469;51.502;7.462;2023-03-11T00:45:22;12.02;;;8.77;;
79064;SDS011;68469;51.502;7.462;2023-03-11T00:47:49;12.45;;;8.27;;
79064;SDS011;68469;51.502;7.462;2023-03-11T00:50:17;19.98;;;10.13;;
79064;SDS011;68469;51.502;7.462;2023-03-11T00:52:53;16.85;;;7.68;;
79064;SDS011;68469;51.502;7.462;2023-03-11T00:55:21;14.90;;;7.32;;
79064;SDS011;68469;51.502;7.462;2023-03-11T00:57:52;23.95;;;8.57;;
79064;SDS011;68469;51.502;7.462;2023-03-11T01:00:19;26.98;;;8.15;;
79064;SDS011;68469;51.502;7.462;2023-03-11T01:02:45;13.95;;;7.05;;
79064;SDS011;68469;51.502;7.462;2023-03-11T01:05:11;14.02;;;6.93;;
79064;SDS011;68469;51.502;7.462;2023-03-11T01:07:37;14.80;;;6.90;;
79064;SDS011;68469;51.502;7.462;2023-03-11T01:10:03;13.95;;;6.10;;
79064;SDS011;68469;51.502;7.462;2023-03-11T01:12:30;10.27;;;5.70;;
79064;SDS011;68469;51.502;7.462;2023-03-11T01:14:56;13.15;;;6.60;;
79064;SDS011;68469;51.502;7.462;2023-03-11T01:17:22;14.88;;;5.57;;
79064;SDS011;68469;51.502;7.462;2023-03-11T01:19:47;9.77;;;5.60;;
79064;SDS011;68469;51.502;7.462;2023-03-11T01:22:13;13.35;;;6.10;;
79064;SDS011;68469;51.502;7.462;2023-03-11T01:24:39;13.38;;;7.30;;
79064;SDS011;68469;51.502;7.462;2023-03-11T01:27:04;14.52;;;6.30;;
79064;SDS011;68469;51.502;7.462;2023-03-11T01:29:30;13.48;;;6.50;;
79064;SDS011;68469;51.502;7.462;2023-03-11T01:31:56;13.73;;;6.13;;
79064;SDS011;68469;51.502;7.462;2023-03-11T01:34:23;12.95;;;6.18;;
79064;SDS011;68469;51.502;7.462;2023-03-11T01:36:49;12.73;;;5.88;;
79064;SDS011;68469;51.502;7.462;2023-03-11T01:39:14;13.60;;;6.22;;
79064;SDS011;68469;51.502;7.462;2023-03-11T01:41:43;8.23;;;5.45;;
79064;SDS011;68469;51.502;7.462;2023-03-11T01:44:12;11.73;;;6.45;;
79064;SDS011;68469;51.502;7.462;2023-03-11T01:49:19;10.75;;;5.45;;
79064;SDS011;68469;51.502;7.462;2023-03-11T01:52:04;13.25;;;6.28;;
79064;SDS011;68469;51.502;7.462;2023-03-11T01:54:36;8.98;;;5.97;;
79064;SDS011;68469;51.502;7.462;2023-03-11T01:57:07;9.30;;;5.40;;
79064;SDS011;68469;51.502;7.462;2023-03-11T01:59:37;7.85;;;4.70;;
79064;SDS011;68469;51.502;7.462;2023-03-11T02:02:10;13.10;;;5.80;;
79064;SDS011;68469;51.502;7.462;2023-03-11T02:04:38;9.23;;;5.30;;
79064;SDS011;68469;51.502;7.462;2023-03-11T02:07:06;5.93;;;4.55;;
79064;SDS011;68469;51.502;7.462;2023-03-11T02:09:34;9.38;;;5.53;;
79064;SDS011;68469;51.502;7.462;2023-03-11T02:12:00;8.32;;;4.68;;
79064;SDS011;68469;51.502;7.462;2023-03-11T02:14:28;6.15;;;4.63;;
79064;SDS011;68469;51.502;7.462;2023-03-11T02:16:55;7.93;;;5.03;;
79064;SDS011;68469;51.502;7.462;2023-03-11T02:22:09;7.25;;;3.92;;
79064;SDS011;68469;51.502;7.462;2023-03-11T02:27:20;11.85;;;5.28;;
79064;SDS011;68469;51.502;7.462;2023-03-11T02:29:47;8.30;;;4.68;;
79064;SDS011;68469;51.502;7.462;2023-03-11T02:32:15;10.63;;;5.43;;
79064;SDS011;68469;51.502;7.462;2023-03-11T02:34:42;9.18;;;4.90;;
79064;SDS011;68469;51.502;7.462;2023-03-11T02:37:12;10.00;;;5.10;;
79064;SDS011;68469;51.502;7.462;2023-03-11T02:39:40;12.48;;;5.35;;
79064;SDS011;68469;51.502;7.462;2023-03-11T02:42:12;8.43;;;4.70;;
79064;SDS011;68469;51.502;7.462;2023-03-11T02:44:43;8.02;;;5.07;;
79064;SDS011;68469;51.502;7.462;2023-03-11T02:47:11;11.38;;;4.50;;
79064;SDS011;68469;51.502;7.462;2023-03-11T02:49:38;7.90;;;5.05;;
79064;SDS011;68469;51.502;7.462;2023-03-11T02:52:04;9.48;;;4.28;;
79064;SDS011;68469;51.502;7.462;2023-03-11T02:54:30;7.97;;;4.20;;
79064;SDS011;68469;51.502;7.462;2023-03-11T02:56:56;7.68;;;4.20;;
79064;SDS011;68469;51.502;7.462;2023-03-11T02:59:21;7.68;;;3.97;;
79064;SDS011;68469;51.502;7.462;2023-03-11T03:01:47;9.05;;;4.72;;
79064;SDS011;68469;51.502;7.462;2023-03-11T03:04:12;10.07;;;5.20;;
79064;SDS011;68469;51.502;7.462;2023-03-11T03:06:38;8.60;;;4.20;;
79064;SDS011;68469;51.502;7.462;2023-03-11T03:09:04;10.20;;;4.32;;
79064;SDS011;68469;51.502;7.462;2023-03-11T03:11:29;7.07;;;3.97;;
79064;SDS011;68469;51.502;7.462;2023-03-11T03:13:55;5.53;;;3.75;;
79064;SDS011;68469;51.502;7.462;2023-03-11T03:16:20;8.77;;;4.00;;
79064;SDS011;68469;51.502;7.462;2023-03-11T03:18:46;7.57;;;4.10;;
79064;SDS011;68469;51.502;7.462;2023-03-11T03:21:12;6.50;;;3.90;;
79064;SDS011;68469;51.502;7.462;2023-03-11T03:23:37;5.82;;;3.90;;
79064;SDS011;68469;51.502;7.462;2023-03-11T03:26:04;6.43;;;3.65;;
79064;SDS011;68469;51.502;7.462;2023-03-11T03:28:30;7.32;;;4.18;;
79064;SDS011;68469;51.502;7.462;2023-03-11T03:30:55;6.38;;;3.78;;
79064;SDS011;68469;51.502;7.462;2023-03-11T03:33:28;6.65;;;4.03;;
79064;SDS011;68469;51.502;7.462;2023-03-11T03:35:54;7.80;;;3.40;;
79064;SDS011;68469;51.502;7.462;2023-03-11T03:38:20;5.80;;;3.47;;
79064;SDS011;68469;51.502;7.462;2023-03-11T03:40:45;5.88;;;3.58;;
79064;SDS011;68469;51.502;7.462;2023-03-11T03:43:11;5.57;;;4.00;;
79064;SDS011;68469;51.502;7.462;2023-03-11T03:45:37;6.78;;;4.03;;
79064;SDS011;68469;51.502;7.462;2023-03-11T03:48:03;5.03;;;3.65;;
79064;SDS011;68469;51.502;7.462;2023-03-11T03:50:29;5.82;;;3.30;;
79064;SDS011;68469;51.502;7.462;2023-03-11T03:52:54;5.13;;;3.28;;
79064;SDS011;68469;51.502;7.462;2023-03-11T03:55:20;5.90;;;3.90;;
79064;SDS011;68469;51.502;7.462;2023-03-11T03:57:45;6.18;;;3.47;;
79064;SDS011;68469;51.502;7.462;2023-03-11T04:00:11;5.43;;;3.25;;
79064;SDS011;68469;51.502;7.462;2023-03-11T04:02:37;7.30;;;3.55;;
79064;SDS011;68469;51.502;7.462;2023-03-11T04:05:03;5.47;;;3.38;;
79064;SDS011;68469;51.502;7.462;2023-03-11T04:07:29;4.38;;;2.90;;
79064;SDS011;68469;51.502;7.462;2023-03-11T04:09:57;5.32;;;2.80;;
79064;SDS011;68469;51.502;7.462;2023-03-11T04:12:22;5.22;;;3.20;;
79064;SDS011;68469;51.502;7.462;2023-03-11T04:14:48;6.35;;;3.28;;
79064;SDS011;68469;51.502;7.462;2023-03-11T04:17:14;6.32;;;3.15;;
79064;SDS011;68469;51.502;7.462;2023-03-11T04:19:41;6.25;;;2.78;;
79064;SDS011;68469;51.502;7.462;2023-03-11T04:22:07;6.57;;;3.38;;
79064;SDS011;68469;51.502;7.462;2023-03-11T04:24:33;4.95;;;2.72;;
79064;SDS011;68469;51.502;7.462;2023-03-11T04:26:58;4.65;;;2.88;;
79064;SDS011;68469;51.502;7.462;2023-03-11T04:29:24;6.35;;;3.47;;
79064;SDS011;68469;51.502;7.462;2023-03-11T04:31:49;5.45;;;2.88;;
79064;SDS011;68469;51.502;7.462;2023-03-11T04:34:15;6.40;;;3.38;;
79064;SDS011;68469;51.502;7.462;2023-03-11T04:36:41;4.75;;;2.75;;
79064;SDS011;68469;51.502;7.462;2023-03-11T04:39:06;4.50;;;2.63;;
79064;SDS011;68469;51.502;7.462;2023-03-11T04:41:32;4.47;;;2.88;;
79064;SDS011;68469;51.502;7.462;2023-03-11T04:43:58;3.95;;;2.72;;
79064;SDS011;68469;51.502;7.462;2023-03-11T04:46:24;4.97;;;2.65;;
79064;SDS011;68469;51.502;7.462;2023-03-11T04:48:50;6.22;;;3.22;;
79064;SDS011;68469;51.502;7.462;2023-03-11T04:51:15;4.10;;;3.08;;
79064;SDS011;68469;51.502;7.462;2023-03-11T04:53:41;5.55;;;2.97;;
79064;SDS011;68469;51.502;7.462;2023-03-11T04:56:07;5.40;;;2.95;;
79064;SDS011;68469;51.502;7.462;2023-03-11T04:58:32;4.53;;;2.42;;
79064;SDS011;68469;51.502;7.462;2023-03-11T05:00:58;4.50;;;2.47;;
79064;SDS011;68469;51.502;7.462;2023-03-11T05:03:23;5.25;;;2.50;;
79064;SDS011;68469;51.502;7.462;2023-03-11T05:05:49;3.42;;;2.55;;
79064;SDS011;68469;51.502;7.462;2023-03-11T05:08:17;3.75;;;2.47;;
79064;SDS011;68469;51.502;7.462;2023-03-11T05:10:42;4.93;;;2.60;;
79064;SDS011;68469;51.502;7.462;2023-03-11T05:13:08;4.07;;;2.33;;
79064;SDS011;68469;51.502;7.462;2023-03-11T05:15:34;3.47;;;2.50;;
79064;SDS011;68469;51.502;7.462;2023-03-11T05:18:00;3.20;;;2.20;;
79064;SDS011;68469;51.502;7.462;2023-03-11T05:20:26;4.15;;;2.53;;
79064;SDS011;68469;51.502;7.462;2023-03-11T05:22:51;3.97;;;2.28;;
79064;SDS011;68469;51.502;7.462;2023-03-11T05:25:17;5.10;;;2.50;;
79064;SDS011;68469;51.502;7.462;2023-03-11T05:27:43;3.10;;;2.40;;
79064;SDS011;68469;51.502;7.462;2023-03-11T05:30:09;5.15;;;2.50;;
79064;SDS011;68469;51.502;7.462;2023-03-11T05:32:35;3.97;;;2.13;;
79064;SDS011;68469;51.502;7.462;2023-03-11T05:35:00;5.78;;;2.33;;
79064;SDS011;68469;51.502;7.462;2023-03-11T05:37:26;5.10;;;2.22;;
79064;SDS011;68469;51.502;7.462;2023-03-11T05:39:52;2.83;;;1.90;;
79064;SDS011;68469;51.502;7.462;2023-03-11T05:42:17;4.78;;;2.22;;
79064;SDS011;68469;51.502;7.462;2023-03-11T05:44:43;4.63;;;2.25;;
79064;SDS011;68469;51.502;7.462;2023-03-11T05:47:09;3.63;;;2.00;;
79064;SDS011;68469;51.502;7.462;2023-03-11T05:49:34;4.70;;;2.72;;
79064;SDS011;68469;51.502;7.462;2023-03-11T05:52:00;5.40;;;2.55;;
79064;SDS011;68469;51.502;7.462;2023-03-11T05:54:26;4.55;;;2.55;;
79064;SDS011;68469;51.502;7.462;2023-03-11T05:56:51;4.03;;;2.58;;
79064;SDS011;68469;51.502;7.462;2023-03-11T05:59:17;4.05;;;2.50;;
79064;SDS011;68469;51.502;7.462;2023-03-11T06:01:43;3.75;;;1.98;;
79064;SDS011;68469;51.502;7.462;2023-03-11T06:04:09;4.25;;;2.03;;
79064;SDS011;68469;51.502;7.462;2023-03-11T06:06:34;3.40;;;2.08;;
79064;SDS011;68469;51.502;7.462;2023-03-11T06:09:00;4.50;;;2.00;;
79064;SDS011;68469;51.502;7.462;2023-03-11T06:11:27;4.32;;;2.13;;
79064;SDS011;68469;51.502;7.462;2023-03-11T06:13:54;3.40;;;1.88;;
79064;SDS011;68469;51.502;7.462;2023-03-11T06:16:21;2.42;;;1.77;;
79064;SDS011;68469;51.502;7.462;2023-03-11T06:18:48;4.05;;;2.10;;
79064;SDS011;68469;51.502;7.462;2023-03-11T06:21:22;3.30;;;2.15;;
79064;SDS011;68469;51.502;7.462;2023-03-11T06:23:49;2.75;;;1.85;;
79064;SDS011;68469;51.502;7.462;2023-03-11T06:26:16;4.15;;;1.98;;
79064;SDS011;68469;51.502;7.462;2023-03-11T06:28:44;2.17;;;1.98;;
79064;SDS011;68469;51.502;7.462;2023-03-11T06:31:12;3.20;;;1.88;;
79064;SDS011;68469;51.502;7.462;2023-03-11T06:33:43;3.83;;;1.92;;
79064;SDS011;68469;51.502;7.462;2023-03-11T06:36:09;2.40;;;1.73;;
79064;SDS011;68469;51.502;7.462;2023-03-11T06:38:40;2.42;;;1.70;;
79064;SDS011;68469;51.502;7.462;2023-03-11T06:41:06;2.80;;;1.60;;
79064;SDS011;68469;51.502;7.462;2023-03-11T06:43:32;4.40;;;2.08;;
79064;SDS011;68469;51.502;7.462;2023-03-11T06:45:58;3.22;;;1.90;;
79064;SDS011;68469;51.502;7.462;2023-03-11T06:48:25;2.63;;;1.92;;
79064;SDS011;68469;51.502;7.462;2023-03-11T06:50:54;3.47;;;1.50;;
79064;SDS011;68469;51.502;7.462;2023-03-11T06:53:24;6.53;;;2.33;;
79064;SDS011;68469;51.502;7.462;2023-03-11T06:56:10;3.60;;;1.70;;
79064;SDS011;68469;51.502;7.462;2023-03-11T06:58:37;2.60;;;1.50;;
79064;SDS011;68469;51.502;7.462;2023-03-11T07:01:09;3.75;;;2.25;;
79064;SDS011;68469;51.502;7.462;2023-03-11T07:06:03;2.72;;;1.63;;
79064;SDS011;68469;51.502;7.462;2023-03-11T07:08:29;2.38;;;1.60;;
79064;SDS011;68469;51.502;7.462;2023-03-11T07:13:52;3.85;;;1.88;;
79064;SDS011;68469;51.502;7.462;2023-03-11T07:16:19;2.40;;;1.67;;
79064;SDS011;68469;51.502;7.462;2023-03-11T07:18:47;2.20;;;1.70;;
79064;SDS011;68469;51.502;7.462;2023-03-11T07:21:14;1.85;;;1.27;;
79064;SDS011;68469;51.502;7.462;2023-03-11T07:23:42;2.75;;;1.33;;
79064;SDS011;68469;51.502;7.462;2023-03-11T07:26:09;2.75;;;1.95;;
79064;SDS011;68469;51.502;7.462;2023-03-11T07:28:35;3.88;;;1.38;;
79064;SDS011;68469;51.502;7.462;2023-03-11T07:31:08;2.50;;;1.30;;
79064;SDS011;68469;51.502;7.462;2023-03-11T07:33:35;1.77;;;1.42;;
79064;SDS011;68469;51.502;7.462;2023-03-11T07:36:09;2.60;;;1.58;;
79064;SDS011;68469;51.502;7.462;2023-03-11T07:38:36;4.53;;;1.95;;
79064;SDS011;68469;51.502;7.462;2023-03-11T07:41:02;2.67;;;1.67;;
79064;SDS011;68469;51.502;7.462;2023-03-11T07:43:29;2.55;;;1.60;;
79064;SDS011;68469;51.502;7.462;2023-03-11T07:46:14;2.53;;;1.42;;
79064;SDS011;68469;51.502;7.462;2023-03-11T07:48:42;1.65;;;1.05;;
79064;SDS011;68469;51.502;7.462;2023-03-11T07:51:09;2.15;;;1.30;;
79064;SDS011;68469;51.502;7.462;2023-03-11T07:53:37;3.03;;;1.45;;
79064;SDS011;68469;51.502;7.462;2023-03-11T07:56:05;1.75;;;1.23;;
79064;SDS011;68469;51.502;7.462;2023-03-11T07:58:32;1.95;;;1.33;;
79064;SDS011;68469;51.502;7.462;2023-03-11T08:01:04;2.13;;;1.30;;
79064;SDS011;68469;51.502;7.462;2023-03-11T08:03:42;1.83;;;1.17;;
79064;SDS011;68469;51.502;7.462;2023-03-11T08:06:16;2.85;;;1.40;;
79064;SDS011;68469;51.502;7.462;2023-03-11T08:08:46;2.80;;;1.40;;
79064;SDS011;68469;51.502;7.462;2023-03-11T08:11:13;1.85;;;1.33;;
79064;SDS011;68469;51.502;7.462;2023-03-11T08:13:40;2.30;;;1.30;;
79064;SDS011;68469;51.502;7.462;2023-03-11T08:16:08;1.95;;;1.40;;
79064;SDS011;68469;51.502;7.462;2023-03-11T08:18:35;1.88;;;1.25;;
79064;SDS011;68469;51.502;7.462;2023-03-11T08:21:07;2.30;;;1.45;;
79064;SDS011;68469;51.502;7.462;2023-03-11T08:23:33;2.60;;;1.52;;
79064;SDS011;68469;51.502;7.462;2023-03-11T08:26:03;1.90;;;1.30;;
79064;SDS011;68469;51.502;7.462;2023-03-11T08:28:29;2.17;;;1.40;;
79064;SDS011;68469;51.502;7.462;2023-03-11T08:30:55;2.10;;;1.30;;
79064;SDS011;68469;51.502;7.462;2023-03-11T08:33:21;2.45;;;1.42;;
79064;SDS011;68469;51.502;7.462;2023-03-11T08:35:47;2.00;;;1.65;;
79064;SDS011;68469;51.502;7.462;2023-03-11T08:38:12;3.00;;;1.02;;
79064;SDS011;68469;51.502;7.462;2023-03-11T08:40:38;1.98;;;1.38;;
79064;SDS011;68469;51.502;7.462;2023-03-11T08:43:03;1.88;;;1.20;;
79064;SDS011;68469;51.502;7.462;2023-03-11T08:45:29;2.75;;;1.80;;
79064;SDS011;68469;51.502;7.462;2023-03-11T08:47:55;3.72;;;1.40;;
79064;SDS011;68469;51.502;7.462;2023-03-11T08:50:21;1.98;;;1.23;;
79064;SDS011;68469;51.502;7.462;2023-03-11T08:52:46;2.05;;;1.33;;
79064;SDS011;68469;51.502;7.462;2023-03-11T08:55:13;2.40;;;1.17;;
79064;SDS011;68469;51.502;7.462;2023-03-11T08:57:42;2.63;;;1.45;;
79064;SDS011;68469;51.502;7.462;2023-03-11T09:00:08;3.05;;;1.25;;
79064;SDS011;68469;51.502;7.462;2023-03-11T09:02:35;5.00;;;1.45;;
79064;SDS011;68469;51.502;7.462;2023-03-11T09:05:01;2.17;;;1.40;;
79064;SDS011;68469;51.502;7.462;2023-03-11T09:07:27;2.10;;;1.45;;
79064;SDS011;68469;51.502;7.462;2023-03-11T09:09:52;4.28;;;1.95;;
79064;SDS011;68469;51.502;7.462;2023-03-11T09:12:18;1.58;;;1.13;;
79064;SDS011;68469;51.502;7.462;2023-03-11T09:14:44;2.53;;;1.20;;
79064;SDS011;68469;51.502;7.462;2023-03-11T09:17:10;1.83;;;1.10;;
79064;SDS011;68469;51.502;7.462;2023-03-11T09:19:36;1.80;;;1.08;;
79064;SDS011;68469;51.502;7.462;2023-03-11T09:22:03;6.55;;;2.10;;
79064;SDS011;68469;51.502;7.462;2023-03-11T09:24:31;2.50;;;1.23;;
79064;SDS011;68469;51.502;7.462;2023-03-11T09:26:58;9.73;;;1.38;;
79064;SDS011;68469;51.502;7.462;2023-03-11T09:29:24;3.97;;;1.42;;
79064;SDS011;68469;51.502;7.462;2023-03-11T09:31:50;2.50;;;1.20;;
79064;SDS011;68469;51.502;7.462;2023-03-11T09:34:15;4.20;;;1.30;;
79064;SDS011;68469;51.502;7.462;2023-03-11T09:36:41;5.22;;;1.30;;
79064;SDS011;68469;51.502;7.462;2023-03-11T09:39:07;5.68;;;1.40;;
79064;SDS011;68469;51.502;7.462;2023-03-11T09:41:36;1.63;;;0.85;;
79064;SDS011;68469;51.502;7.462;2023-03-11T09:49:21;5.22;;;1.77;;
79064;SDS011;68469;51.502;7.462;2023-03-11T09:52:22;6.30;;;1.40;;
79064;SDS011;68469;51.502;7.462;2023-03-11T09:55:19;3.42;;;1.33;;
79064;SDS011;68469;51.502;7.462;2023-03-11T10:00:20;18.15;;;12.15;;
79064;SDS011;68469;51.502;7.462;2023-03-11T10:02:48;39.05;;;28.10;;
79064;SDS011;68469;51.502;7.462;2023-03-11T10:05:15;122.30;;;83.68;;
79064;SDS011;68469;51.502;7.462;2023-03-11T10:07:55;46.53;;;33.90;;
79064;SDS011;68469;51.502;7.462;2023-03-11T10:10:44;33.58;;;23.35;;
79064;SDS011;68469;51.502;7.462;2023-03-11T10:13:37;44.00;;;29.25;;
79064;SDS011;68469;51.502;7.462;2023-03-11T10:16:23;41.03;;;28.23;;
79064;SDS011;68469;51.502;7.462;2023-03-11T10:18:59;44.80;;;32.05;;
79064;SDS011;68469;51.502;7.462;2023-03-11T10:24:02;49.28;;;33.70;;
79064;SDS011;68469;51.502;7.462;2023-03-11T10:26:41;46.45;;;32.75;;
79064;SDS011;68469;51.502;7.462;2023-03-11T10:29:26;43.38;;;29.60;;
79064;SDS011;68469;51.502;7.462;2023-03-11T10:34:34;31.25;;;23.40;;
79064;SDS011;68469;51.502;7.462;2023-03-11T10:39:55;29.33;;;20.77;;
79064;SDS011;68469;51.502;7.462;2023-03-11T10:42:50;28.60;;;17.55;;
79064;SDS011;68469;51.502;7.462;2023-03-11T10:45:18;28.17;;;19.02;;
79064;SDS011;68469;51.502;7.462;2023-03-11T10:47:47;27.65;;;20.38;;
79064;SDS011;68469;51.502;7.462;2023-03-11T10:50:14;33.65;;;22.85;;
79064;SDS011;68469;51.502;7.462;2023-03-11T10:55:49;31.20;;;20.98;;
79064;SDS011;68469;51.502;7.462;2023-03-11T10:58:22;28.48;;;19.77;;
79064;SDS011;68469;51.502;7.462;2023-03-11T11:01:03;27.60;;;19.55;;
79064;SDS011;68469;51.502;7.462;2023-03-11T11:03:37;26.90;;;18.83;;
79064;SDS011;68469;51.502;7.462;2023-03-11T11:06:09;25.70;;;19.05;;
79064;SDS011;68469;51.502;7.462;2023-03-11T11:08:44;33.35;;;18.40;;
79064;SDS011;68469;51.502;7.462;2023-03-11T11:11:21;25.92;;;18.33;;
79064;SDS011;68469;51.502;7.462;2023-03-11T11:13:54;26.35;;;17.27;;
79064;SDS011;68469;51.502;7.462;2023-03-11T11:16:21;22.70;;;16.17;;
79064;SDS011;68469;51.502;7.462;2023-03-11T11:18:48;25.38;;;16.55;;
79064;SDS011;68469;51.502;7.462;2023-03-11T11:24:34;24.10;;;14.68;;
79064;SDS011;68469;51.502;7.462;2023-03-11T11:29:40;32.58;;;14.95;;
79064;SDS011;68469;51.502;7.462;2023-03-11T11:35:10;22.88;;;14.15;;
79064;SDS011;68469;51.502;7.462;2023-03-11T11:37:45;19.77;;;13.88;;
79064;SDS011;68469;51.502;7.462;2023-03-11T11:42:39;24.85;;;13.95;;
79064;SDS011;68469;51.502;7.462;2023-03-11T11:45:13;21.00;;;12.95;;
79064;SDS011;68469;51.502;7.462;2023-03-11T11:47:53;21.00;;;12.07;;
79064;SDS011;68469;51.502;7.462;2023-03-11T11:50:32;18.70;;;12.15;;
79064;SDS011;68469;51.502;7.462;2023-03-11T11:53:12;26.02;;;12.25;;
79064;SDS011;68469;51.502;7.462;2023-03-11T11:55:58;29.02;;;12.05;;
79064;SDS011;68469;51.502;7.462;2023-03-11T11:58:25;23.67;;;12.20;;
79064;SDS011;68469;51.502;7.462;2023-03-11T12:06:26;17.60;;;10.52;;
79064;SDS011;68469;51.502;7.462;2023-03-11T12:12:43;18.50;;;9.85;;
79064;SDS011;68469;51.502;7.462;2023-03-11T12:15:28;14.48;;;8.65;;
79064;SDS011;68469;51.502;7.462;2023-03-11T12:18:03;16.73;;;7.93;;
79064;SDS011;68469;51.502;7.462;2023-03-11T12:20:39;13.63;;;7.55;;
79064;SDS011;68469;51.502;7.462;2023-03-11T12:23:46;17.05;;;7.20;;
79064;SDS011;68469;51.502;7.462;2023-03-11T12:28:47;50.13;;;14.20;;
79064;SDS011;68469;51.502;7.462;2023-03-11T12:31:24;39.30;;;13.55;;
79064;SDS011;68469;51.502;7.462;2023-03-11T12:33:57;56.70;;;12.45;;
79064;SDS011;68469;51.502;7.462;2023-03-11T12:38:56;40.42;;;9.88;;
79064;SDS011;68469;51.502;7.462;2023-03-11T12:41:37;38.03;;;8.77;;
79064;SDS011;68469;51.502;7.462;2023-03-11T12:49:23;142.00;;;29.15;;
79064;SDS011;68469;51.502;7.462;2023-03-11T12:54:38;80.97;;;18.08;;
79064;SDS011;68469;51.502;7.462;2023-03-11T12:57:39;73.57;;;18.92;;
79064;SDS011;68469;51.502;7.462;2023-03-11T13:03:45;88.13;;;18.02;;
79064;SDS011;68469;51.502;7.462;2023-03-11T13:06:34;70.40;;;16.77;;
79064;SDS011;68469;51.502;7.462;2023-03-11T13:09:16;72.38;;;17.30;;
79064;SDS011;68469;51.502;7.462;2023-03-11T13:11:45;56.00;;;16.27;;
79064;SDS011;68469;51.502;7.462;2023-03-11T13:16:55;61.08;;;15.45;;
79064;SDS011;68469;51.502;7.462;2023-03-11T13:19:47;56.17;;;13.45;;
79064;SDS011;68469;51.502;7.462;2023-03-11T13:30:58;37.83;;;11.65;;
79064;SDS011;68469;51.502;7.462;2023-03-11T13:33:52;46.75;;;11.82;;
79064;SDS011;68469;51.502;7.462;2023-03-11T13:42:12;37.60;;;10.23;;
79064;SDS011;68469;51.502;7.462;2023-03-11T13:44:41;43.08;;;11.60;;
79064;SDS011;68469;51.502;7.462;2023-03-11T13:47:09;50.92;;;11.30;;
79064;SDS011;68469;51.502;7.462;2023-03-11T13:53:09;38.30;;;10.65;;
79064;SDS011;68469;51.502;7.462;2023-03-11T13:55:20;40.45;;;10.77;;
79064;SDS011;68469;51.502;7.462;2023-03-11T13:57:50;32.85;;;9.15;;
79064;SDS011;68469;51.502;7.462;2023-03-11T14:00:18;31.38;;;9.25;;
79064;SDS011;68469;51.502;7.462;2023-03-11T14:05:34;31.45;;;10.05;;
79064;SDS011;68469;51.502;7.462;2023-03-11T14:10:58;34.50;;;9.02;;
79064;SDS011;68469;51.502;7.462;2023-03-11T14:13:32;35.35;;;8.55;;
79064;SDS011;68469;51.502;7.462;2023-03-11T14:21:17;26.92;;;8.10;;
79064;SDS011;68469;51.502;7.462;2023-03-11T14:23:45;28.58;;;8.93;;
79064;SDS011;68469;51.502;7.462;2023-03-11T14:26:27;26.35;;;7.68;;
79064;SDS011;68469;51.502;7.462;2023-03-11T14:28:55;33.40;;;8.00;;
79064;SDS011;68469;51.502;7.462;2023-03-11T14:34:00;27.55;;;8.38;;
79064;SDS011;68469;51.502;7.462;2023-03-11T14:39:21;29.25;;;8.85;;
79064;SDS011;68469;51.502;7.462;2023-03-11T14:41:47;26.50;;;7.88;;
79064;SDS011;68469;51.502;7.462;2023-03-11T14:44:14;24.98;;;6.80;;
79064;SDS011;68469;51.502;7.462;2023-03-11T14:46:40;20.60;;;6.40;;
79064;SDS011;68469;51.502;7.462;2023-03-11T14:49:06;19.33;;;7.15;;
79064;SDS011;68469;51.502;7.462;2023-03-11T14:51:40;20.02;;;6.78;;
79064;SDS011;68469;51.502;7.462;2023-03-11T14:54:16;22.70;;;7.18;;
79064;SDS011;68469;51.502;7.462;2023-03-11T14:56:58;23.63;;;7.13;;
79064;SDS011;68469;51.502;7.462;2023-03-11T14:59:32;22.45;;;6.85;;
79064;SDS011;68469;51.502;7.462;2023-03-11T15:04:57;25.02;;;6.65;;
79064;SDS011;68469;51.502;7.462;2023-03-11T15:07:31;22.35;;;6.95;;
79064;SDS011;68469;51.502;7.462;2023-03-11T15:10:00;20.33;;;6.70;;
79064;SDS011;68469;51.502;7.462;2023-03-11T15:12:32;21.15;;;7.05;;
79064;SDS011;68469;51.502;7.462;2023-03-11T15:15:19;20.90;;;6.75;;
79064;SDS011;68469;51.502;7.462;2023-03-11T15:17:53;13.60;;;5.25;;
79064;SDS011;68469;51.502;7.462;2023-03-11T15:20:24;23.45;;;7.15;;
79064;SDS011;68469;51.502;7.462;2023-03-11T15:22:55;19.27;;;6.15;;
79064;SDS011;68469;51.502;7.462;2023-03-11T15:25:24;19.92;;;5.65;;
79064;SDS011;68469;51.502;7.462;2023-03-11T15:27:51;23.10;;;6.20;;
79064;SDS011;68469;51.502;7.462;2023-03-11T15:30:19;17.50;;;6.32;;
79064;SDS011;68469;51.502;7.462;2023-03-11T15:32:47;18.10;;;5.95;;
79064;SDS011;68469;51.502;7.462;2023-03-11T15:35:18;17.52;;;5.90;;
79064;SDS011;68469;51.502;7.462;2023-03-11T15:38:11;15.98;;;6.30;;
79064;SDS011;68469;51.502;7.462;2023-03-11T15:40:56;16.35;;;5.20;;
79064;SDS011;68469;51.502;7.462;2023-03-11T15:43:26;15.60;;;5.30;;
79064;SDS011;68469;51.502;7.462;2023-03-11T15:45:56;17.23;;;5.53;;
79064;SDS011;68469;51.502;7.462;2023-03-11T15:48:24;14.77;;;4.55;;
79064;SDS011;68469;51.502;7.462;2023-03-11T15:50:53;15.70;;;5.07;;
79064;SDS011;68469;51.502;7.462;2023-03-11T15:53:20;18.52;;;5.72;;
79064;SDS011;68469;51.502;7.462;2023-03-11T15:55:48;13.75;;;5.45;;
79064;SDS011;68469;51.502;7.462;2023-03-11T15:58:16;17.58;;;5.55;;
79064;SDS011;68469;51.502;7.462;2023-03-11T16:00:45;14.05;;;5.10;;
79064;SDS011;68469;51.502;7.462;2023-03-11T16:03:17;18.40;;;5.20;;
79064;SDS011;68469;51.502;7.462;2023-03-11T16:05:44;14.43;;;5.10;;
79064;SDS011;68469;51.502;7.462;2023-03-11T16:08:10;18.35;;;4.95;;
79064;SDS011;68469;51.502;7.462;2023-03-11T16:10:36;12.85;;;5.10;;
79064;SDS011;68469;51.502;7.462;2023-03-11T16:13:03;17.20;;;5.07;;
79064;SDS011;68469;51.502;7.462;2023-03-11T16:15:30;15.00;;;5.47;;
79064;SDS011;68469;51.502;7.462;2023-03-11T16:18:01;16.70;;;5.50;;
79064;SDS011;68469;51.502;7.462;2023-03-11T16:20:30;16.15;;;4.63;;
79064;SDS011;68469;51.502;7.462;2023-03-11T16:23:18;12.38;;;4.32;;
79064;SDS011;68469;51.502;7.462;2023-03-11T16:25:56;15.50;;;5.28;;
79064;SDS011;68469;51.502;7.462;2023-03-11T16:28:25;15.38;;;4.60;;
79064;SDS011;68469;51.502;7.462;2023-03-11T16:30:51;12.88;;;4.43;;
79064;SDS011;68469;51.502;7.462;2023-03-11T16:33:17;18.00;;;4.40;;
79064;SDS011;68469;51.502;7.462;2023-03-11T16:35:43;11.60;;;4.68;;
79064;SDS011;68469;51.502;7.462;2023-03-11T16:38:08;15.80;;;5.22;;
79064;SDS011;68469;51.502;7.462;2023-03-11T16:40:34;11.18;;;4.30;;